Terminal Aerodrome Forecast
Issued by NWS

Home | Current Version | Previous Version | Text Only | Print | Product List | Glossary On
Versions: 1 2 3 4 5 6 7 8 9 10 11 12 13 14 15 16 17 18 19 20 21 22 23 24 25 26 27 28
000
FTUS45 KSLC 191737
TAFPVU
TAF
KPVU 191737Z 1918/2018 07005KT 1SM -SN BR SCT007 BKN015
     FM192100 VRB05KT 2SM -SNRA BR SCT007 BKN015
     FM200200 30005KT 4SM -SN BKN010
     FM200700 VRB05KT P6SM -SHSN SCT007 BKN015=

USA.gov is the U.S. government's official web portal to all federal, state and local government web resources and services.